sensor_id;sensor_type;location;lat;lon;timestamp;pressure;altitude;pressure_sealevel;temperature;humidity
57779;BME280;43608;49.486;9.640;2024-02-16T00:00:13;98528.09;;;7.50;100.00
57779;BME280;43608;49.486;9.640;2024-02-16T00:00:46;98519.31;;;7.49;100.00
57779;BME280;43608;49.486;9.640;2024-02-16T00:01:16;98523.69;;;7.46;100.00
57779;BME280;43608;49.486;9.640;2024-02-16T00:01:47;98525.41;;;7.43;100.00
57779;BME280;43608;49.486;9.640;2024-02-16T00:02:17;98527.22;;;7.49;100.00
57779;BME280;43608;49.486;9.640;2024-02-16T00:02:48;98488.41;;;7.26;100.00
57779;BME280;43608;49.486;9.640;2024-02-16T00:03:18;98527.19;;;7.48;100.00
57779;BME280;43608;49.486;9.640;2024-02-16T00:03:49;98530.72;;;7.48;100.00
57779;BME280;43608;49.486;9.640;2024-02-16T00:04:19;98536.00;;;7.50;100.00
57779;BME280;43608;49.486;9.640;2024-02-16T00:04:49;98535.13;;;7.49;100.00
57779;BME280;43608;49.486;9.640;2024-02-16T00:05:19;98533.38;;;7.50;100.00
57779;BME280;43608;49.486;9.640;2024-02-16T00:05:50;98539.56;;;7.52;100.00
57779;BME280;43608;49.486;9.640;2024-02-16T00:06:21;98542.19;;;7.53;100.00
57779;BME280;43608;49.486;9.640;2024-02-16T00:06:52;98537.78;;;7.54;100.00
57779;BME280;43608;49.486;9.640;2024-02-16T00:07:22;98521.06;;;7.46;100.00
57779;BME280;43608;49.486;9.640;2024-02-16T00:07:53;98539.56;;;7.58;100.00
57779;BME280;43608;49.486;9.640;2024-02-16T00:08:23;98540.47;;;7.60;100.00
57779;BME280;43608;49.486;9.640;2024-02-16T00:08:53;98541.34;;;7.60;100.00
57779;BME280;43608;49.486;9.640;2024-02-16T00:09:24;98543.09;;;7.61;100.00
57779;BME280;43608;49.486;9.640;2024-02-16T00:09:54;98544.88;;;7.64;100.00
57779;BME280;43608;49.486;9.640;2024-02-16T00:10:24;98544.00;;;7.65;100.00
57779;BME280;43608;49.486;9.640;2024-02-16T00:10:55;98544.00;;;7.67;100.00
57779;BME280;43608;49.486;9.640;2024-02-16T00:11:25;98544.91;;;7.69;100.00
57779;BME280;43608;49.486;9.640;2024-02-16T00:11:56;98549.28;;;7.70;100.00
57779;BME280;43608;49.486;9.640;2024-02-16T00:12:26;98546.69;;;7.71;100.00
57779;BME280;43608;49.486;9.640;2024-02-16T00:12:57;98544.91;;;7.70;100.00
57779;BME280;43608;49.486;9.640;2024-02-16T00:13:27;98544.06;;;7.73;100.00
57779;BME280;43608;49.486;9.640;2024-02-16T00:13:57;98549.31;;;7.73;100.00
57779;BME280;43608;49.486;9.640;2024-02-16T00:14:28;98525.53;;;7.64;100.00
57779;BME280;43608;49.486;9.640;2024-02-16T00:14:58;98538.78;;;7.73;100.00
57779;BME280;43608;49.486;9.640;2024-02-16T00:15:29;98538.78;;;7.73;100.00
57779;BME280;43608;49.486;9.640;2024-02-16T00:15:59;98544.06;;;7.73;100.00
57779;BME280;43608;49.486;9.640;2024-02-16T00:16:30;98537.00;;;7.72;100.00
57779;BME280;43608;49.486;9.640;2024-02-16T00:17:00;98541.41;;;7.73;100.00
57779;BME280;43608;49.486;9.640;2024-02-16T00:17:31;98534.38;;;7.72;100.00
57779;BME280;43608;49.486;9.640;2024-02-16T00:18:01;98531.69;;;7.66;100.00
57779;BME280;43608;49.486;9.640;2024-02-16T00:18:32;98533.50;;;7.71;100.00
57779;BME280;43608;49.486;9.640;2024-02-16T00:19:03;98529.97;;;7.69;100.00
57779;BME280;43608;49.486;9.640;2024-02-16T00:19:33;98537.00;;;7.70;100.00
57779;BME280;43608;49.486;9.640;2024-02-16T00:20:04;98526.44;;;7.69;100.00
57779;BME280;43608;49.486;9.640;2024-02-16T00:20:37;98527.28;;;7.63;100.00
57779;BME280;43608;49.486;9.640;2024-02-16T00:21:07;98533.47;;;7.68;100.00
57779;BME280;43608;49.486;9.640;2024-02-16T00:21:38;98534.31;;;7.64;100.00
57779;BME280;43608;49.486;9.640;2024-02-16T00:22:12;98539.59;;;7.66;100.00
57779;BME280;43608;49.486;9.640;2024-02-16T00:22:43;98541.38;;;7.64;100.00
57779;BME280;43608;49.486;9.640;2024-02-16T00:23:13;98539.59;;;7.64;100.00
57779;BME280;43608;49.486;9.640;2024-02-16T00:23:45;98540.47;;;7.63;100.00
57779;BME280;43608;49.486;9.640;2024-02-16T00:24:15;98544.00;;;7.64;100.00
57779;BME280;43608;49.486;9.640;2024-02-16T00:24:46;98531.69;;;7.59;100.00
57779;BME280;43608;49.486;9.640;2024-02-16T00:25:17;98537.81;;;7.60;100.00
57779;BME280;43608;49.486;9.640;2024-02-16T00:25:48;98536.09;;;7.62;100.00
57779;BME280;43608;49.486;9.640;2024-02-16T00:26:18;98531.69;;;7.59;100.00
57779;BME280;43608;49.486;9.640;2024-02-16T00:26:49;98536.06;;;7.60;100.00
57779;BME280;43608;49.486;9.640;2024-02-16T00:27:19;98529.88;;;7.52;100.00
57779;BME280;43608;49.486;9.640;2024-02-16T00:27:50;98536.97;;;7.59;100.00
57779;BME280;43608;49.486;9.640;2024-02-16T00:28:26;98541.34;;;7.59;100.00
57779;BME280;43608;49.486;9.640;2024-02-16T00:28:56;98537.81;;;7.58;100.00
57779;BME280;43608;49.486;9.640;2024-02-16T00:29:27;98529.88;;;7.54;100.00
57779;BME280;43608;49.486;9.640;2024-02-16T00:29:58;98536.06;;;7.57;100.00
57779;BME280;43608;49.486;9.640;2024-02-16T00:30:29;98531.66;;;7.55;100.00
57779;BME280;43608;49.486;9.640;2024-02-16T00:30:59;98536.91;;;7.56;100.00
57779;BME280;43608;49.486;9.640;2024-02-16T00:31:30;98530.78;;;7.54;100.00
57779;BME280;43608;49.486;9.640;2024-02-16T00:32:01;98533.41;;;7.54;100.00
57779;BME280;43608;49.486;9.640;2024-02-16T00:32:31;98532.50;;;7.54;100.00
57779;BME280;43608;49.486;9.640;2024-02-16T00:33:02;98536.00;;;7.53;100.00
57779;BME280;43608;49.486;9.640;2024-02-16T00:33:32;98535.16;;;7.51;100.00
57779;BME280;43608;49.486;9.640;2024-02-16T00:34:03;98532.50;;;7.51;100.00
57779;BME280;43608;49.486;9.640;2024-02-16T00:34:35;98537.78;;;7.51;100.00
57779;BME280;43608;49.486;9.640;2024-02-16T00:35:06;98525.47;;;7.47;100.00
57779;BME280;43608;49.486;9.640;2024-02-16T00:35:36;98534.25;;;7.49;100.00
57779;BME280;43608;49.486;9.640;2024-02-16T00:36:07;98536.88;;;7.49;100.00
57779;BME280;43608;49.486;9.640;2024-02-16T00:36:37;98535.09;;;7.48;100.00
57779;BME280;43608;49.486;9.640;2024-02-16T00:37:08;98522.78;;;7.45;100.00
57779;BME280;43608;49.486;9.640;2024-02-16T00:37:39;98534.25;;;7.47;100.00
57779;BME280;43608;49.486;9.640;2024-02-16T00:38:10;98535.97;;;7.45;100.00
57779;BME280;43608;49.486;9.640;2024-02-16T00:38:40;98514.81;;;7.33;100.00
57779;BME280;43608;49.486;9.640;2024-02-16T00:39:10;98534.22;;;7.44;100.00
57779;BME280;43608;49.486;9.640;2024-02-16T00:39:41;98538.59;;;7.43;100.00
57779;BME280;43608;49.486;9.640;2024-02-16T00:40:11;98535.09;;;7.41;100.00
57779;BME280;43608;49.486;9.640;2024-02-16T00:40:42;98543.88;;;7.42;100.00
57779;BME280;43608;49.486;9.640;2024-02-16T00:41:21;98542.09;;;7.39;100.00
57779;BME280;43608;49.486;9.640;2024-02-16T00:41:51;98546.50;;;7.39;100.00
57779;BME280;43608;49.486;9.640;2024-02-16T00:42:22;98537.69;;;7.38;100.00
57779;BME280;43608;49.486;9.640;2024-02-16T00:42:56;98539.47;;;7.38;100.00
57779;BME280;43608;49.486;9.640;2024-02-16T00:43:26;98527.13;;;7.34;100.00
57779;BME280;43608;49.486;9.640;2024-02-16T00:43:57;98512.13;;;7.22;100.00
57779;BME280;43608;49.486;9.640;2024-02-16T00:44:28;98535.03;;;7.32;100.00
57779;BME280;43608;49.486;9.640;2024-02-16T00:44:58;98535.91;;;7.33;100.00
57779;BME280;43608;49.486;9.640;2024-02-16T00:45:30;98527.09;;;7.31;100.00
57779;BME280;43608;49.486;9.640;2024-02-16T00:46:00;98532.41;;;7.32;100.00
57779;BME280;43608;49.486;9.640;2024-02-16T00:46:31;98533.28;;;7.34;100.00
57779;BME280;43608;49.486;9.640;2024-02-16T00:47:02;98538.56;;;7.33;100.00
57779;BME280;43608;49.486;9.640;2024-02-16T00:47:32;98518.31;;;7.27;100.00
57779;BME280;43608;49.486;9.640;2024-02-16T00:48:03;98528.88;;;7.32;100.00
57779;BME280;43608;49.486;9.640;2024-02-16T00:48:33;98529.72;;;7.31;100.00
57779;BME280;43608;49.486;9.640;2024-02-16T00:49:04;98535.91;;;7.33;100.00
57779;BME280;43608;49.486;9.640;2024-02-16T00:49:34;98513.84;;;7.18;100.00
57779;BME280;43608;49.486;9.640;2024-02-16T00:50:05;98530.63;;;7.31;100.00
57779;BME280;43608;49.486;9.640;2024-02-16T00:50:38;98520.03;;;7.26;100.00
57779;BME280;43608;49.486;9.640;2024-02-16T00:51:09;98525.31;;;7.26;100.00
57779;BME280;43608;49.486;9.640;2024-02-16T00:51:40;98528.88;;;7.28;100.00
57779;BME280;43608;49.486;9.640;2024-02-16T00:52:10;98529.72;;;7.31;100.00
57779;BME280;43608;49.486;9.640;2024-02-16T00:52:40;98535.88;;;7.26;100.00
57779;BME280;43608;49.486;9.640;2024-02-16T00:53:11;98529.72;;;7.27;100.00
57779;BME280;43608;49.486;9.640;2024-02-16T00:53:41;98533.22;;;7.28;100.00
57779;BME280;43608;49.486;9.640;2024-02-16T00:54:11;98523.53;;;7.19;100.00
57779;BME280;43608;49.486;9.640;2024-02-16T00:54:42;98536.78;;;7.28;100.00
57779;BME280;43608;49.486;9.640;2024-02-16T00:55:12;98535.88;;;7.26;100.00
57779;BME280;43608;49.486;9.640;2024-02-16T00:55:43;98535.00;;;7.26;100.00
57779;BME280;43608;49.486;9.640;2024-02-16T00:56:15;98522.69;;;7.23;100.00
57779;BME280;43608;49.486;9.640;2024-02-16T00:56:46;98498.84;;;7.08;100.00
57779;BME280;43608;49.486;9.640;2024-02-16T00:57:17;98491.81;;;7.04;100.00
57779;BME280;43608;49.486;9.640;2024-02-16T00:57:47;98501.50;;;7.09;100.00
57779;BME280;43608;49.486;9.640;2024-02-16T00:58:19;98531.47;;;7.24;100.00
57779;BME280;43608;49.486;9.640;2024-02-16T00:58:49;98533.22;;;7.23;100.00
57779;BME280;43608;49.486;9.640;2024-02-16T00:59:20;98532.31;;;7.21;100.00
57779;BME280;43608;49.486;9.640;2024-02-16T00:59:51;98526.19;;;7.21;100.00
57779;BME280;43608;49.486;9.640;2024-02-16T01:00:21;98530.53;;;7.20;100.00
57779;BME280;43608;49.486;9.640;2024-02-16T01:00:53;98522.63;;;7.14;100.00
57779;BME280;43608;49.486;9.640;2024-02-16T01:01:24;98522.63;;;7.17;100.00
57779;BME280;43608;49.486;9.640;2024-02-16T01:01:56;98517.34;;;7.17;100.00
57779;BME280;43608;49.486;9.640;2024-02-16T01:02:26;98518.22;;;7.16;100.00
57779;BME280;43608;49.486;9.640;2024-02-16T01:02:57;98523.50;;;7.16;100.00
57779;BME280;43608;49.486;9.640;2024-02-16T01:03:27;98521.72;;;7.15;100.00
57779;BME280;43608;49.486;9.640;2024-02-16T01:03:57;98511.16;;;7.09;100.00
57779;BME280;43608;49.486;9.640;2024-02-16T01:04:28;98516.44;;;7.12;100.00
57779;BME280;43608;49.486;9.640;2024-02-16T01:05:00;98520.00;;;7.14;100.00
57779;BME280;43608;49.486;9.640;2024-02-16T01:05:32;98519.94;;;7.13;100.00
57779;BME280;43608;49.486;9.640;2024-02-16T01:06:02;98513.81;;;7.12;100.00
57779;BME280;43608;49.486;9.640;2024-02-16T01:06:33;98513.81;;;7.14;100.00
57779;BME280;43608;49.486;9.640;2024-02-16T01:07:03;98519.09;;;7.14;100.00
57779;BME280;43608;49.486;9.640;2024-02-16T01:07:34;98512.94;;;7.13;100.00
57779;BME280;43608;49.486;9.640;2024-02-16T01:08:04;98517.34;;;7.14;100.00
57779;BME280;43608;49.486;9.640;2024-02-16T01:08:34;98498.84;;;7.08;100.00
57779;BME280;43608;49.486;9.640;2024-02-16T01:09:05;98498.81;;;7.03;100.00
57779;BME280;43608;49.486;9.640;2024-02-16T01:09:36;98513.81;;;7.14;100.00
57779;BME280;43608;49.486;9.640;2024-02-16T01:10:07;98512.03;;;7.08;100.00
57779;BME280;43608;49.486;9.640;2024-02-16T01:10:37;98511.19;;;7.12;100.00
57779;BME280;43608;49.486;9.640;2024-02-16T01:11:07;98507.66;;;7.11;100.00
57779;BME280;43608;49.486;9.640;2024-02-16T01:11:38;98496.16;;;7.02;100.00
57779;BME280;43608;49.486;9.640;2024-02-16T01:12:10;98518.22;;;7.13;100.00
57779;BME280;43608;49.486;9.640;2024-02-16T01:12:40;98518.22;;;7.13;100.00
57779;BME280;43608;49.486;9.640;2024-02-16T01:13:10;98516.44;;;7.12;100.00
57779;BME280;43608;49.486;9.640;2024-02-16T01:13:41;98511.19;;;7.12;100.00
57779;BME280;43608;49.486;9.640;2024-02-16T01:14:14;98517.31;;;7.13;100.00
57779;BME280;43608;49.486;9.640;2024-02-16T01:14:44;98507.63;;;7.05;100.00
57779;BME280;43608;49.486;9.640;2024-02-16T01:15:15;98514.66;;;7.09;100.00
57779;BME280;43608;49.486;9.640;2024-02-16T01:15:46;98499.72;;;7.04;100.00
57779;BME280;43608;49.486;9.640;2024-02-16T01:16:17;98514.66;;;7.09;100.00
57779;BME280;43608;49.486;9.640;2024-02-16T01:16:47;98519.06;;;7.10;100.00
57779;BME280;43608;49.486;9.640;2024-02-16T01:17:18;98520.81;;;7.10;100.00
57779;BME280;43608;49.486;9.640;2024-02-16T01:17:49;98521.72;;;7.10;100.00
57779;BME280;43608;49.486;9.640;2024-02-16T01:18:19;98513.81;;;7.09;100.00
57779;BME280;43608;49.486;9.640;2024-02-16T01:18:49;98525.22;;;7.08;100.00
57779;BME280;43608;49.486;9.640;2024-02-16T01:19:20;98497.88;;;6.93;100.00
57779;BME280;43608;49.486;9.640;2024-02-16T01:19:50;98527.84;;;7.08;100.00
57779;BME280;43608;49.486;9.640;2024-02-16T01:20:20;98524.31;;;7.06;100.00
57779;BME280;43608;49.486;9.640;2024-02-16T01:20:51;98486.44;;;6.88;100.00
57779;BME280;43608;49.486;9.640;2024-02-16T01:21:22;98520.78;;;7.04;100.00
57779;BME280;43608;49.486;9.640;2024-02-16T01:21:52;98517.25;;;7.03;100.00
57779;BME280;43608;49.486;9.640;2024-02-16T01:22:27;98523.44;;;7.04;100.00
57779;BME280;43608;49.486;9.640;2024-02-16T01:23:00;98516.38;;;7.03;100.00
57779;BME280;43608;49.486;9.640;2024-02-16T01:23:30;98527.78;;;7.03;100.00
57779;BME280;43608;49.486;9.640;2024-02-16T01:24:01;98516.38;;;7.03;100.00
57779;BME280;43608;49.486;9.640;2024-02-16T01:24:31;98523.41;;;7.02;100.00
57779;BME280;43608;49.486;9.640;2024-02-16T01:25:02;98520.75;;;6.99;100.00
57779;BME280;43608;49.486;9.640;2024-02-16T01:25:33;98518.16;;;7.02;100.00
57779;BME280;43608;49.486;9.640;2024-02-16T01:26:03;98520.78;;;7.02;100.00
57779;BME280;43608;49.486;9.640;2024-02-16T01:26:34;98438.78;;;6.59;100.00
57779;BME280;43608;49.486;9.640;2024-02-16T01:27:04;98511.97;;;7.02;100.00
57779;BME280;43608;49.486;9.640;2024-02-16T01:27:35;98526.94;;;7.03;100.00
57779;BME280;43608;49.486;9.640;2024-02-16T01:28:06;98521.66;;;7.01;100.00
57779;BME280;43608;49.486;9.640;2024-02-16T01:28:36;98524.28;;;7.03;100.00
57779;BME280;43608;49.486;9.640;2024-02-16T01:29:06;98515.50;;;7.02;100.00
57779;BME280;43608;49.486;9.640;2024-02-16T01:29:37;98517.25;;;7.00;100.00
57779;BME280;43608;49.486;9.640;2024-02-16T01:30:07;98488.13;;;6.83;100.00
57779;BME280;43608;49.486;9.640;2024-02-16T01:30:39;98519.03;;;7.03;100.00
57779;BME280;43608;49.486;9.640;2024-02-16T01:31:09;98525.16;;;7.02;100.00
57779;BME280;43608;49.486;9.640;2024-02-16T01:31:40;98517.25;;;7.02;100.00
57779;BME280;43608;49.486;9.640;2024-02-16T01:32:10;98519.00;;;7.01;100.00
57779;BME280;43608;49.486;9.640;2024-02-16T01:32:41;98519.88;;;7.03;100.00
57779;BME280;43608;49.486;9.640;2024-02-16T01:33:11;98524.28;;;7.03;100.00
57779;BME280;43608;49.486;9.640;2024-02-16T01:33:42;98501.31;;;6.88;100.00
57779;BME280;43608;49.486;9.640;2024-02-16T01:34:12;98512.84;;;6.98;100.00
57779;BME280;43608;49.486;9.640;2024-02-16T01:34:43;98514.63;;;7.02;100.00
57779;BME280;43608;49.486;9.640;2024-02-16T01:35:16;98514.63;;;7.02;100.00
57779;BME280;43608;49.486;9.640;2024-02-16T01:35:47;98517.25;;;7.02;100.00
57779;BME280;43608;49.486;9.640;2024-02-16T01:36:18;98464.31;;;6.69;100.00
57779;BME280;43608;49.486;9.640;2024-02-16T01:36:48;98519.88;;;6.99;100.00
57779;BME280;43608;49.486;9.640;2024-02-16T01:37:18;98502.25;;;6.91;100.00
57779;BME280;43608;49.486;9.640;2024-02-16T01:37:49;98511.06;;;6.95;100.00
57779;BME280;43608;49.486;9.640;2024-02-16T01:38:19;98517.25;;;7.00;100.00
57779;BME280;43608;49.486;9.640;2024-02-16T01:38:51;98522.50;;;7.00;100.00
57779;BME280;43608;49.486;9.640;2024-02-16T01:39:23;98512.84;;;6.98;100.00
57779;BME280;43608;49.486;9.640;2024-02-16T01:39:53;98518.13;;;7.01;100.00
57779;BME280;43608;49.486;9.640;2024-02-16T01:40:23;98523.38;;;7.01;100.00
57779;BME280;43608;49.486;9.640;2024-02-16T01:40:56;98523.38;;;7.01;100.00
57779;BME280;43608;49.486;9.640;2024-02-16T01:41:26;98511.97;;;6.97;100.00
57779;BME280;43608;49.486;9.640;2024-02-16T01:41:56;98506.66;;;6.92;100.00
57779;BME280;43608;49.486;9.640;2024-02-16T01:42:27;98519.00;;;7.00;100.00
57779;BME280;43608;49.486;9.640;2024-02-16T01:42:57;98514.59;;;6.99;100.00
57779;BME280;43608;49.486;9.640;2024-02-16T01:43:28;98514.56;;;6.95;100.00
57779;BME280;43608;49.486;9.640;2024-02-16T01:43:58;98517.25;;;7.00;100.00
57779;BME280;43608;49.486;9.640;2024-02-16T01:44:29;98519.88;;;7.00;100.00
57779;BME280;43608;49.486;9.640;2024-02-16T01:44:59;98516.38;;;7.00;100.00
57779;BME280;43608;49.486;9.640;2024-02-16T01:45:30;98514.59;;;6.99;100.00
57779;BME280;43608;49.486;9.640;2024-02-16T01:46:01;98513.69;;;6.98;100.00
57779;BME280;43608;49.486;9.640;2024-02-16T01:46:33;98519.88;;;6.99;100.00
57779;BME280;43608;49.486;9.640;2024-02-16T01:47:04;98512.81;;;6.96;100.00
57779;BME280;43608;49.486;9.640;2024-02-16T01:47:38;98507.56;;;6.94;100.00
57779;BME280;43608;49.486;9.640;2024-02-16T01:48:09;98517.25;;;6.99;100.00
57779;BME280;43608;49.486;9.640;2024-02-16T01:48:39;98519.88;;;6.99;100.00
57779;BME280;43608;49.486;9.640;2024-02-16T01:49:11;98512.81;;;6.94;100.00
57779;BME280;43608;49.486;9.640;2024-02-16T01:49:41;98514.59;;;6.97;100.00
57779;BME280;43608;49.486;9.640;2024-02-16T01:50:12;98512.84;;;6.98;100.00
57779;BME280;43608;49.486;9.640;2024-02-16T01:50:43;98510.19;;;6.96;100.00
57779;BME280;43608;49.486;9.640;2024-02-16T01:51:14;98511.06;;;6.98;100.00
57779;BME280;43608;49.486;9.640;2024-02-16T01:51:46;98512.84;;;6.98;100.00
57779;BME280;43608;49.486;9.640;2024-02-16T01:52:16;98468.72;;;6.72;100.00
57779;BME280;43608;49.486;9.640;2024-02-16T01:52:48;98518.09;;;6.98;100.00
57779;BME280;43608;49.486;9.640;2024-02-16T01:53:18;98518.09;;;6.98;100.00
57779;BME280;43608;49.486;9.640;2024-02-16T01:53:50;98516.34;;;6.98;100.00
57779;BME280;43608;49.486;9.640;2024-02-16T01:54:20;98518.97;;;6.98;100.00
57779;BME280;43608;49.486;9.640;2024-02-16T01:54:51;98514.56;;;6.95;100.00
57779;BME280;43608;49.486;9.640;2024-02-16T01:55:21;98518.97;;;6.98;100.00
57779;BME280;43608;49.486;9.640;2024-02-16T01:55:52;98512.81;;;6.96;100.00
57779;BME280;43608;49.486;9.640;2024-02-16T01:56:22;98522.50;;;6.99;100.00
57779;BME280;43608;49.486;9.640;2024-02-16T01:56:54;98518.09;;;6.99;100.00
57779;BME280;43608;49.486;9.640;2024-02-16T01:57:25;98521.59;;;6.98;100.00
57779;BME280;43608;49.486;9.640;2024-02-16T01:57:57;98520.72;;;6.96;100.00
57779;BME280;43608;49.486;9.640;2024-02-16T01:58:28;98515.47;;;6.98;100.00
57779;BME280;43608;49.486;9.640;2024-02-16T01:58:58;98518.97;;;6.98;100.00
57779;BME280;43608;49.486;9.640;2024-02-16T01:59:29;98523.38;;;6.98;100.00
57779;BME280;43608;49.486;9.640;2024-02-16T01:59:59;98520.75;;;6.98;100.00
57779;BME280;43608;49.486;9.640;2024-02-16T02:00:30;98513.69;;;6.97;100.00
57779;BME280;43608;49.486;9.640;2024-02-16T02:01:00;98517.19;;;6.95;100.00
57779;BME280;43608;49.486;9.640;2024-02-16T02:01:30;98519.84;;;6.95;100.00
57779;BME280;43608;49.486;9.640;2024-02-16T02:02:01;98526.00;;;6.98;100.00
57779;BME280;43608;49.486;9.640;2024-02-16T02:02:31;98518.97;;;6.97;100.00
57779;BME280;43608;49.486;9.640;2024-02-16T02:03:01;98514.56;;;6.95;100.00
57779;BME280;43608;49.486;9.640;2024-02-16T02:03:32;98516.34;;;6.97;100.00
57779;BME280;43608;49.486;9.640;2024-02-16T02:04:04;98511.06;;;6.95;100.00
57779;BME280;43608;49.486;9.640;2024-02-16T02:04:36;98505.78;;;6.93;100.00
57779;BME280;43608;49.486;9.640;2024-02-16T02:05:07;98511.06;;;6.95;100.00
57779;BME280;43608;49.486;9.640;2024-02-16T02:05:44;98512.78;;;6.93;100.00
57779;BME280;43608;49.486;9.640;2024-02-16T02:06:18;98523.38;;;6.94;100.00
57779;BME280;43608;49.486;9.640;2024-02-16T02:06:48;98519.84;;;6.95;100.00
57779;BME280;43608;49.486;9.640;2024-02-16T02:07:18;98520.72;;;6.96;100.00
57779;BME280;43608;49.486;9.640;2024-02-16T02:07:49;98518.06;;;6.93;100.00
57779;BME280;43608;49.486;9.640;2024-02-16T02:08:19;98518.97;;;6.93;100.00
57779;BME280;43608;49.486;9.640;2024-02-16T02:08:50;98506.59;;;6.88;100.00
57779;BME280;43608;49.486;9.640;2024-02-16T02:09:20;98501.31;;;6.88;100.00
57779;BME280;43608;49.486;9.640;2024-02-16T02:09:50;98508.41;;;6.95;100.00
57779;BME280;43608;49.486;9.640;2024-02-16T02:10:21;98514.56;;;6.95;100.00
57779;BME280;43608;49.486;9.640;2024-02-16T02:10:52;98517.19;;;6.95;100.00
57779;BME280;43608;49.486;9.640;2024-02-16T02:11:22;98518.09;;;6.96;100.00
57779;BME280;43608;49.486;9.640;2024-02-16T02:11:53;98499.53;;;6.82;100.00
57779;BME280;43608;49.486;9.640;2024-02-16T02:12:23;98509.28;;;6.94;100.00
57779;BME280;43608;49.486;9.640;2024-02-16T02:12:54;98514.56;;;6.94;100.00
57779;BME280;43608;49.486;9.640;2024-02-16T02:13:26;98507.50;;;6.88;100.00
57779;BME280;43608;49.486;9.640;2024-02-16T02:13:56;98518.97;;;6.95;100.00
57779;BME280;43608;49.486;9.640;2024-02-16T02:14:27;98512.81;;;6.94;100.00
57779;BME280;43608;49.486;9.640;2024-02-16T02:14:58;98493.41;;;6.83;100.00
57779;BME280;43608;49.486;9.640;2024-02-16T02:15:28;98513.69;;;6.93;100.00
57779;BME280;43608;49.486;9.640;2024-02-16T02:15:59;98513.69;;;6.95;100.00
57779;BME280;43608;49.486;9.640;2024-02-16T02:16:30;98514.56;;;6.95;100.00
57779;BME280;43608;49.486;9.640;2024-02-16T02:17:01;98514.56;;;6.95;100.00
57779;BME280;43608;49.486;9.640;2024-02-16T02:17:31;98500.47;;;6.90;100.00
57779;BME280;43608;49.486;9.640;2024-02-16T02:18:01;98509.28;;;6.91;100.00
57779;BME280;43608;49.486;9.640;2024-02-16T02:18:32;98511.06;;;6.95;100.00
57779;BME280;43608;49.486;9.640;2024-02-16T02:19:02;98516.31;;;6.95;100.00
57779;BME280;43608;49.486;9.640;2024-02-16T02:19:32;98511.94;;;6.95;100.00
57779;BME280;43608;49.486;9.640;2024-02-16T02:20:03;98509.28;;;6.95;100.00
57779;BME280;43608;49.486;9.640;2024-02-16T02:20:34;98508.41;;;6.95;100.00
57779;BME280;43608;49.486;9.640;2024-02-16T02:21:04;98511.94;;;6.95;100.00
57779;BME280;43608;49.486;9.640;2024-02-16T02:21:35;98514.59;;;6.97;100.00
57779;BME280;43608;49.486;9.640;2024-02-16T02:22:16;98499.56;;;6.85;100.00
57779;BME280;43608;49.486;9.640;2024-02-16T02:22:47;98518.09;;;6.96;100.00
57779;BME280;43608;49.486;9.640;2024-02-16T02:23:17;98514.59;;;6.97;100.00
57779;BME280;43608;49.486;9.640;2024-02-16T02:23:48;98514.59;;;6.97;100.00
57779;BME280;43608;49.486;9.640;2024-02-16T02:24:18;98520.75;;;6.98;100.00
57779;BME280;43608;49.486;9.640;2024-02-16T02:24:48;98510.19;;;6.98;100.00
57779;BME280;43608;49.486;9.640;2024-02-16T02:25:19;98510.19;;;6.94;100.00
57779;BME280;43608;49.486;9.640;2024-02-16T02:25:49;98511.97;;;6.97;100.00
57779;BME280;43608;49.486;9.640;2024-02-16T02:26:20;98516.34;;;6.97;100.00
57779;BME280;43608;49.486;9.640;2024-02-16T02:26:51;98511.06;;;6.93;100.00
57779;BME280;43608;49.486;9.640;2024-02-16T02:27:21;98511.94;;;6.95;100.00
57779;BME280;43608;49.486;9.640;2024-02-16T02:27:52;98521.59;;;6.95;100.00
57779;BME280;43608;49.486;9.640;2024-02-16T02:28:22;98515.41;;;6.91;100.00
57779;BME280;43608;49.486;9.640;2024-02-16T02:28:54;98519.81;;;6.94;100.00
57779;BME280;43608;49.486;9.640;2024-02-16T02:29:24;98512.81;;;6.94;100.00
57779;BME280;43608;49.486;9.640;2024-02-16T02:29:54;98482.81;;;6.74;100.00
57779;BME280;43608;49.486;9.640;2024-02-16T02:30:25;98513.69;;;6.92;100.00
57779;BME280;43608;49.486;9.640;2024-02-16T02:30:56;98512.81;;;6.94;100.00
57779;BME280;43608;49.486;9.640;2024-02-16T02:31:26;98507.50;;;6.90;100.00
57779;BME280;43608;49.486;9.640;2024-02-16T02:31:56;98514.56;;;6.94;100.00
57779;BME280;43608;49.486;9.640;2024-02-16T02:32:27;98506.66;;;6.92;100.00
57779;BME280;43608;49.486;9.640;2024-02-16T02:32:58;98497.84;;;6.90;100.00
57779;BME280;43608;49.486;9.640;2024-02-16T02:33:28;98504.00;;;6.94;100.00
57779;BME280;43608;49.486;9.640;2024-02-16T02:33:59;98508.41;;;6.93;100.00
57779;BME280;43608;49.486;9.640;2024-02-16T02:34:29;98490.78;;;6.86;100.00
57779;BME280;43608;49.486;9.640;2024-02-16T02:35:01;98481.94;;;6.76;100.00
57779;BME280;43608;49.486;9.640;2024-02-16T02:35:31;98499.59;;;6.90;100.00
57779;BME280;43608;49.486;9.640;2024-02-16T02:36:02;98483.72;;;6.81;100.00
57779;BME280;43608;49.486;9.640;2024-02-16T02:36:34;98508.41;;;6.92;100.00
57779;BME280;43608;49.486;9.640;2024-02-16T02:37:05;98484.59;;;6.83;100.00
57779;BME280;43608;49.486;9.640;2024-02-16T02:37:36;98505.78;;;6.93;100.00
57779;BME280;43608;49.486;9.640;2024-02-16T02:38:06;98496.97;;;6.93;100.00
57779;BME280;43608;49.486;9.640;2024-02-16T02:38:37;98500.50;;;6.93;100.00
57779;BME280;43608;49.486;9.640;2024-02-16T02:39:07;98497.88;;;6.93;100.00
57779;BME280;43608;49.486;9.640;2024-02-16T02:39:37;98496.97;;;6.91;100.00
57779;BME280;43608;49.486;9.640;2024-02-16T02:40:08;98487.34;;;6.92;100.00
57779;BME280;43608;49.486;9.640;2024-02-16T02:40:39;98484.69;;;6.93;100.00
57779;BME280;43608;49.486;9.640;2024-02-16T02:41:09;98474.97;;;6.88;100.00
57779;BME280;43608;49.486;9.640;2024-02-16T02:41:39;98478.53;;;6.90;100.00
57779;BME280;43608;49.486;9.640;2024-02-16T02:42:10;98484.69;;;6.93;100.00
57779;BME280;43608;49.486;9.640;2024-02-16T02:42:40;98484.69;;;6.93;100.00
57779;BME280;43608;49.486;9.640;2024-02-16T02:43:10;98486.47;;;6.94;100.00